sensor_id;sensor_type;location;lat;lon;timestamp;temperature;humidity
18041;DHT22;9145;48.588;9.250;2023-03-14T00:01:08;10.10;99.90
18041;DHT22;9145;48.588;9.250;2023-03-14T00:03:35;10.10;99.90
18041;DHT22;9145;48.588;9.250;2023-03-14T00:06:02;10.20;99.90
18041;DHT22;9145;48.588;9.250;2023-03-14T00:08:29;10.10;99.90
18041;DHT22;9145;48.588;9.250;2023-03-14T00:10:56;10.20;99.90
18041;DHT22;9145;48.588;9.250;2023-03-14T00:13:24;10.20;99.90
18041;DHT22;9145;48.588;9.250;2023-03-14T00:15:52;10.20;99.90
18041;DHT22;9145;48.588;9.250;2023-03-14T00:18:19;10.20;99.90
18041;DHT22;9145;48.588;9.250;2023-03-14T00:20:46;10.20;99.90
18041;DHT22;9145;48.588;9.250;2023-03-14T00:23:13;10.30;99.90
18041;DHT22;9145;48.588;9.250;2023-03-14T00:25:39;10.30;99.90
18041;DHT22;9145;48.588;9.250;2023-03-14T00:28:06;10.30;99.90
18041;DHT22;9145;48.588;9.250;2023-03-14T00:30:33;10.20;99.90
18041;DHT22;9145;48.588;9.250;2023-03-14T00:33:01;10.20;99.90
18041;DHT22;9145;48.588;9.250;2023-03-14T00:35:28;10.20;99.90
18041;DHT22;9145;48.588;9.250;2023-03-14T00:37:55;10.10;99.90
18041;DHT22;9145;48.588;9.250;2023-03-14T00:40:21;10.10;99.90
18041;DHT22;9145;48.588;9.250;2023-03-14T00:42:48;10.10;99.90
18041;DHT22;9145;48.588;9.250;2023-03-14T00:45:15;10.10;99.90
18041;DHT22;9145;48.588;9.250;2023-03-14T00:47:42;10.00;99.90
18041;DHT22;9145;48.588;9.250;2023-03-14T00:50:12;10.00;99.90
18041;DHT22;9145;48.588;9.250;2023-03-14T00:52:39;10.00;99.90
18041;DHT22;9145;48.588;9.250;2023-03-14T00:55:06;10.00;99.90
18041;DHT22;9145;48.588;9.250;2023-03-14T00:57:33;10.10;99.90
18041;DHT22;9145;48.588;9.250;2023-03-14T01:00:00;10.10;99.90
18041;DHT22;9145;48.588;9.250;2023-03-14T01:02:26;10.00;99.90
18041;DHT22;9145;48.588;9.250;2023-03-14T01:04:53;10.10;99.90
18041;DHT22;9145;48.588;9.250;2023-03-14T01:07:21;10.10;99.90
18041;DHT22;9145;48.588;9.250;2023-03-14T01:09:51;10.10;99.90
18041;DHT22;9145;48.588;9.250;2023-03-14T01:12:18;10.10;99.90
18041;DHT22;9145;48.588;9.250;2023-03-14T01:14:45;10.10;99.90
18041;DHT22;9145;48.588;9.250;2023-03-14T01:17:12;10.10;99.90
18041;DHT22;9145;48.588;9.250;2023-03-14T01:19:39;10.10;99.90
18041;DHT22;9145;48.588;9.250;2023-03-14T01:22:05;10.10;99.90
18041;DHT22;9145;48.588;9.250;2023-03-14T01:24:33;10.20;99.90
18041;DHT22;9145;48.588;9.250;2023-03-14T01:27:00;10.20;99.90
18041;DHT22;9145;48.588;9.250;2023-03-14T01:29:27;10.20;99.90
18041;DHT22;9145;48.588;9.250;2023-03-14T01:31:54;10.30;99.90
18041;DHT22;9145;48.588;9.250;2023-03-14T01:34:21;10.30;99.90
18041;DHT22;9145;48.588;9.250;2023-03-14T01:36:47;10.20;99.90
18041;DHT22;9145;48.588;9.250;2023-03-14T01:39:14;10.20;99.90
18041;DHT22;9145;48.588;9.250;2023-03-14T01:41:42;10.20;99.90
18041;DHT22;9145;48.588;9.250;2023-03-14T01:44:10;10.10;99.90
18041;DHT22;9145;48.588;9.250;2023-03-14T01:46:41;10.20;99.90
18041;DHT22;9145;48.588;9.250;2023-03-14T01:49:30;10.20;99.90
18041;DHT22;9145;48.588;9.250;2023-03-14T01:52:00;10.20;99.90
18041;DHT22;9145;48.588;9.250;2023-03-14T01:54:32;10.20;99.90
18041;DHT22;9145;48.588;9.250;2023-03-14T01:57:06;10.20;99.90
18041;DHT22;9145;48.588;9.250;2023-03-14T01:59:35;10.30;99.90
18041;DHT22;9145;48.588;9.250;2023-03-14T02:02:04;10.30;99.90
18041;DHT22;9145;48.588;9.250;2023-03-14T02:04:34;10.30;99.90
18041;DHT22;9145;48.588;9.250;2023-03-14T02:07:09;10.30;99.90
18041;DHT22;9145;48.588;9.250;2023-03-14T02:09:38;10.30;99.90
18041;DHT22;9145;48.588;9.250;2023-03-14T02:12:08;10.30;99.90
18041;DHT22;9145;48.588;9.250;2023-03-14T02:14:35;10.20;99.90
18041;DHT22;9145;48.588;9.250;2023-03-14T02:17:04;10.20;99.90
18041;DHT22;9145;48.588;9.250;2023-03-14T02:19:40;10.10;99.90
18041;DHT22;9145;48.588;9.250;2023-03-14T02:22:09;10.20;99.90
18041;DHT22;9145;48.588;9.250;2023-03-14T02:24:42;10.20;99.90
18041;DHT22;9145;48.588;9.250;2023-03-14T02:27:13;10.20;99.90
18041;DHT22;9145;48.588;9.250;2023-03-14T02:29:47;10.20;99.90
18041;DHT22;9145;48.588;9.250;2023-03-14T02:32:16;10.20;99.90
18041;DHT22;9145;48.588;9.250;2023-03-14T02:34:45;10.20;99.90
18041;DHT22;9145;48.588;9.250;2023-03-14T02:37:13;10.20;99.90
18041;DHT22;9145;48.588;9.250;2023-03-14T02:39:43;10.10;99.90
18041;DHT22;9145;48.588;9.250;2023-03-14T02:42:12;10.00;99.90
18041;DHT22;9145;48.588;9.250;2023-03-14T02:44:48;10.00;99.90
18041;DHT22;9145;48.588;9.250;2023-03-14T02:47:16;10.00;99.90
18041;DHT22;9145;48.588;9.250;2023-03-14T02:49:45;9.90;99.90
18041;DHT22;9145;48.588;9.250;2023-03-14T02:52:13;10.00;99.90
18041;DHT22;9145;48.588;9.250;2023-03-14T02:54:39;10.00;99.90
18041;DHT22;9145;48.588;9.250;2023-03-14T02:57:06;10.00;99.90
18041;DHT22;9145;48.588;9.250;2023-03-14T02:59:34;10.00;99.90
18041;DHT22;9145;48.588;9.250;2023-03-14T03:02:01;9.90;99.90
18041;DHT22;9145;48.588;9.250;2023-03-14T03:04:28;9.90;99.90
18041;DHT22;9145;48.588;9.250;2023-03-14T03:06:55;10.00;99.90
18041;DHT22;9145;48.588;9.250;2023-03-14T03:09:21;9.90;99.90
18041;DHT22;9145;48.588;9.250;2023-03-14T03:11:48;9.80;99.90
18041;DHT22;9145;48.588;9.250;2023-03-14T03:14:15;9.80;99.90
18041;DHT22;9145;48.588;9.250;2023-03-14T03:16:43;9.90;99.90
18041;DHT22;9145;48.588;9.250;2023-03-14T03:19:10;9.90;99.90
18041;DHT22;9145;48.588;9.250;2023-03-14T03:21:39;9.90;99.90
18041;DHT22;9145;48.588;9.250;2023-03-14T03:24:05;9.90;99.90
18041;DHT22;9145;48.588;9.250;2023-03-14T03:26:33;9.80;99.90
18041;DHT22;9145;48.588;9.250;2023-03-14T03:29:01;9.90;99.90
18041;DHT22;9145;48.588;9.250;2023-03-14T03:31:28;9.90;99.90
18041;DHT22;9145;48.588;9.250;2023-03-14T03:33:56;9.90;99.90
18041;DHT22;9145;48.588;9.250;2023-03-14T03:36:23;9.80;99.90
18041;DHT22;9145;48.588;9.250;2023-03-14T03:38:50;9.80;99.90
18041;DHT22;9145;48.588;9.250;2023-03-14T03:41:17;9.80;99.90
18041;DHT22;9145;48.588;9.250;2023-03-14T03:43:44;9.80;99.90
18041;DHT22;9145;48.588;9.250;2023-03-14T03:46:11;9.80;99.90
18041;DHT22;9145;48.588;9.250;2023-03-14T03:48:38;9.80;99.90
18041;DHT22;9145;48.588;9.250;2023-03-14T03:51:06;9.80;99.90
18041;DHT22;9145;48.588;9.250;2023-03-14T03:53:33;9.70;99.90
18041;DHT22;9145;48.588;9.250;2023-03-14T03:56:00;9.70;99.90
18041;DHT22;9145;48.588;9.250;2023-03-14T03:58:27;9.70;99.90
18041;DHT22;9145;48.588;9.250;2023-03-14T04:00:54;9.70;99.90
18041;DHT22;9145;48.588;9.250;2023-03-14T04:03:21;9.70;99.90
18041;DHT22;9145;48.588;9.250;2023-03-14T04:05:58;9.60;99.90
18041;DHT22;9145;48.588;9.250;2023-03-14T04:08:26;9.60;99.90
18041;DHT22;9145;48.588;9.250;2023-03-14T04:10:55;9.60;99.90
18041;DHT22;9145;48.588;9.250;2023-03-14T04:13:22;9.60;99.90
18041;DHT22;9145;48.588;9.250;2023-03-14T04:15:49;9.60;99.90
18041;DHT22;9145;48.588;9.250;2023-03-14T04:18:16;9.60;99.90
18041;DHT22;9145;48.588;9.250;2023-03-14T04:20:43;9.50;99.90
18041;DHT22;9145;48.588;9.250;2023-03-14T04:23:10;9.60;99.90
18041;DHT22;9145;48.588;9.250;2023-03-14T04:25:38;9.50;99.90
18041;DHT22;9145;48.588;9.250;2023-03-14T04:28:05;9.50;99.90
18041;DHT22;9145;48.588;9.250;2023-03-14T04:30:32;9.50;99.90
18041;DHT22;9145;48.588;9.250;2023-03-14T04:32:59;9.50;99.90
18041;DHT22;9145;48.588;9.250;2023-03-14T04:35:26;9.50;99.90
18041;DHT22;9145;48.588;9.250;2023-03-14T04:37:53;9.50;99.90
18041;DHT22;9145;48.588;9.250;2023-03-14T04:40:19;9.50;99.90
18041;DHT22;9145;48.588;9.250;2023-03-14T04:42:47;9.50;99.90
18041;DHT22;9145;48.588;9.250;2023-03-14T04:45:15;9.50;99.90
18041;DHT22;9145;48.588;9.250;2023-03-14T04:47:41;9.50;99.90
18041;DHT22;9145;48.588;9.250;2023-03-14T04:50:09;9.50;99.90
18041;DHT22;9145;48.588;9.250;2023-03-14T04:52:36;9.50;99.90
18041;DHT22;9145;48.588;9.250;2023-03-14T04:55:04;9.50;99.90
18041;DHT22;9145;48.588;9.250;2023-03-14T04:57:31;9.50;99.90
18041;DHT22;9145;48.588;9.250;2023-03-14T04:59:59;9.50;99.90
18041;DHT22;9145;48.588;9.250;2023-03-14T05:02:26;9.50;99.90
18041;DHT22;9145;48.588;9.250;2023-03-14T05:04:53;9.50;99.90
18041;DHT22;9145;48.588;9.250;2023-03-14T05:07:19;9.50;99.90
18041;DHT22;9145;48.588;9.250;2023-03-14T05:09:46;9.50;99.90
18041;DHT22;9145;48.588;9.250;2023-03-14T05:12:13;9.50;99.90
18041;DHT22;9145;48.588;9.250;2023-03-14T05:14:40;9.50;99.90
18041;DHT22;9145;48.588;9.250;2023-03-14T05:17:08;9.50;99.90
18041;DHT22;9145;48.588;9.250;2023-03-14T05:19:36;9.50;99.90
18041;DHT22;9145;48.588;9.250;2023-03-14T05:22:03;9.50;99.90
18041;DHT22;9145;48.588;9.250;2023-03-14T05:24:30;9.50;99.90
18041;DHT22;9145;48.588;9.250;2023-03-14T05:26:56;9.50;99.90
18041;DHT22;9145;48.588;9.250;2023-03-14T05:29:23;9.40;99.90
18041;DHT22;9145;48.588;9.250;2023-03-14T05:31:50;9.50;99.90
18041;DHT22;9145;48.588;9.250;2023-03-14T05:34:18;9.40;99.90
18041;DHT22;9145;48.588;9.250;2023-03-14T05:36:45;9.40;99.90
18041;DHT22;9145;48.588;9.250;2023-03-14T05:39:12;9.40;99.90
18041;DHT22;9145;48.588;9.250;2023-03-14T05:41:39;9.40;99.90
18041;DHT22;9145;48.588;9.250;2023-03-14T05:44:06;9.40;99.90
18041;DHT22;9145;48.588;9.250;2023-03-14T05:46:32;9.50;99.90
18041;DHT22;9145;48.588;9.250;2023-03-14T05:49:01;9.40;99.90
18041;DHT22;9145;48.588;9.250;2023-03-14T05:51:29;9.40;99.90
18041;DHT22;9145;48.588;9.250;2023-03-14T05:53:56;9.40;99.90
18041;DHT22;9145;48.588;9.250;2023-03-14T05:56:23;9.40;99.90
18041;DHT22;9145;48.588;9.250;2023-03-14T05:58:50;9.50;99.90
18041;DHT22;9145;48.588;9.250;2023-03-14T06:01:17;9.50;99.90
18041;DHT22;9145;48.588;9.250;2023-03-14T06:03:43;9.50;99.90
18041;DHT22;9145;48.588;9.250;2023-03-14T06:06:10;9.50;99.90
18041;DHT22;9145;48.588;9.250;2023-03-14T06:08:38;9.60;99.90
18041;DHT22;9145;48.588;9.250;2023-03-14T06:11:06;9.50;99.90
18041;DHT22;9145;48.588;9.250;2023-03-14T06:13:32;9.60;99.90
18041;DHT22;9145;48.588;9.250;2023-03-14T06:15:59;9.60;99.90
18041;DHT22;9145;48.588;9.250;2023-03-14T06:18:26;9.50;99.90
18041;DHT22;9145;48.588;9.250;2023-03-14T06:20:53;9.50;99.90
18041;DHT22;9145;48.588;9.250;2023-03-14T06:23:21;9.50;99.90
18041;DHT22;9145;48.588;9.250;2023-03-14T06:25:50;9.60;99.90
18041;DHT22;9145;48.588;9.250;2023-03-14T06:28:17;9.60;99.90
18041;DHT22;9145;48.588;9.250;2023-03-14T06:30:44;9.70;99.90
18041;DHT22;9145;48.588;9.250;2023-03-14T06:33:11;9.70;99.90
18041;DHT22;9145;48.588;9.250;2023-03-14T06:35:37;9.70;99.90
18041;DHT22;9145;48.588;9.250;2023-03-14T06:38:04;9.70;99.90
18041;DHT22;9145;48.588;9.250;2023-03-14T06:40:31;9.70;99.90
18041;DHT22;9145;48.588;9.250;2023-03-14T06:42:59;9.70;99.90
18041;DHT22;9145;48.588;9.250;2023-03-14T06:45:26;9.80;99.90
18041;DHT22;9145;48.588;9.250;2023-03-14T06:47:53;9.80;99.90
18041;DHT22;9145;48.588;9.250;2023-03-14T06:50:19;9.90;99.90
18041;DHT22;9145;48.588;9.250;2023-03-14T06:52:47;9.90;99.90
18041;DHT22;9145;48.588;9.250;2023-03-14T06:55:14;9.80;99.90
18041;DHT22;9145;48.588;9.250;2023-03-14T06:57:41;9.90;99.90
18041;DHT22;9145;48.588;9.250;2023-03-14T07:00:12;9.90;99.90
18041;DHT22;9145;48.588;9.250;2023-03-14T07:02:39;10.00;99.90
18041;DHT22;9145;48.588;9.250;2023-03-14T07:05:07;10.00;99.90
18041;DHT22;9145;48.588;9.250;2023-03-14T07:07:35;10.10;99.90
18041;DHT22;9145;48.588;9.250;2023-03-14T07:10:03;10.10;99.90
18041;DHT22;9145;48.588;9.250;2023-03-14T07:12:29;10.10;99.90
18041;DHT22;9145;48.588;9.250;2023-03-14T07:14:56;10.20;99.90
18041;DHT22;9145;48.588;9.250;2023-03-14T07:17:24;10.30;99.90
18041;DHT22;9145;48.588;9.250;2023-03-14T07:19:51;10.30;99.90
18041;DHT22;9145;48.588;9.250;2023-03-14T07:22:18;10.30;99.90
18041;DHT22;9145;48.588;9.250;2023-03-14T07:24:45;10.40;99.90
18041;DHT22;9145;48.588;9.250;2023-03-14T07:27:11;10.40;99.90
18041;DHT22;9145;48.588;9.250;2023-03-14T07:29:38;10.40;99.90
18041;DHT22;9145;48.588;9.250;2023-03-14T07:32:05;10.50;99.90
18041;DHT22;9145;48.588;9.250;2023-03-14T07:34:34;10.50;99.90
18041;DHT22;9145;48.588;9.250;2023-03-14T07:37:01;10.50;99.90
18041;DHT22;9145;48.588;9.250;2023-03-14T07:39:29;10.50;99.90
18041;DHT22;9145;48.588;9.250;2023-03-14T07:41:56;10.60;99.90
18041;DHT22;9145;48.588;9.250;2023-03-14T07:44:23;10.80;99.90
18041;DHT22;9145;48.588;9.250;2023-03-14T07:46:49;10.80;99.90
18041;DHT22;9145;48.588;9.250;2023-03-14T07:49:16;10.90;99.90
18041;DHT22;9145;48.588;9.250;2023-03-14T07:51:47;10.90;99.90
18041;DHT22;9145;48.588;9.250;2023-03-14T07:54:14;10.90;99.90
18041;DHT22;9145;48.588;9.250;2023-03-14T07:56:41;11.00;99.90
18041;DHT22;9145;48.588;9.250;2023-03-14T07:59:07;11.00;99.90
18041;DHT22;9145;48.588;9.250;2023-03-14T08:01:34;11.00;99.90
18041;DHT22;9145;48.588;9.250;2023-03-14T08:04:01;11.10;99.90
18041;DHT22;9145;48.588;9.250;2023-03-14T08:06:28;11.20;99.90
18041;DHT22;9145;48.588;9.250;2023-03-14T08:08:56;11.30;99.90
18041;DHT22;9145;48.588;9.250;2023-03-14T08:11:23;11.40;99.90
18041;DHT22;9145;48.588;9.250;2023-03-14T08:13:50;11.50;99.90
18041;DHT22;9145;48.588;9.250;2023-03-14T08:16:17;11.60;99.90
18041;DHT22;9145;48.588;9.250;2023-03-14T08:18:44;11.50;99.90
18041;DHT22;9145;48.588;9.250;2023-03-14T08:21:11;11.50;99.90
18041;DHT22;9145;48.588;9.250;2023-03-14T08:23:38;11.40;99.90
18041;DHT22;9145;48.588;9.250;2023-03-14T08:26:07;11.30;99.90
18041;DHT22;9145;48.588;9.250;2023-03-14T08:28:34;11.30;99.90
18041;DHT22;9145;48.588;9.250;2023-03-14T08:31:01;11.40;99.90
18041;DHT22;9145;48.588;9.250;2023-03-14T08:33:28;11.50;99.90
18041;DHT22;9145;48.588;9.250;2023-03-14T08:35:57;11.50;99.90
18041;DHT22;9145;48.588;9.250;2023-03-14T08:38:25;11.40;99.90
18041;DHT22;9145;48.588;9.250;2023-03-14T08:40:56;11.40;99.90
18041;DHT22;9145;48.588;9.250;2023-03-14T08:43:24;11.40;99.90
18041;DHT22;9145;48.588;9.250;2023-03-14T08:45:51;11.60;99.90
18041;DHT22;9145;48.588;9.250;2023-03-14T08:48:18;11.70;99.90
18041;DHT22;9145;48.588;9.250;2023-03-14T08:50:45;11.80;99.90
18041;DHT22;9145;48.588;9.250;2023-03-14T08:53:12;12.00;99.90
18041;DHT22;9145;48.588;9.250;2023-03-14T08:55:38;12.20;99.90
18041;DHT22;9145;48.588;9.250;2023-03-14T08:58:05;12.30;99.90
18041;DHT22;9145;48.588;9.250;2023-03-14T09:00:33;12.40;99.90
18041;DHT22;9145;48.588;9.250;2023-03-14T09:03:00;12.40;99.90
18041;DHT22;9145;48.588;9.250;2023-03-14T09:05:27;12.40;99.90
18041;DHT22;9145;48.588;9.250;2023-03-14T09:07:54;12.40;99.90
18041;DHT22;9145;48.588;9.250;2023-03-14T09:10:21;12.40;99.90
18041;DHT22;9145;48.588;9.250;2023-03-14T09:12:47;12.40;99.90
18041;DHT22;9145;48.588;9.250;2023-03-14T09:15:14;12.50;99.90
18041;DHT22;9145;48.588;9.250;2023-03-14T09:17:43;12.30;99.90
18041;DHT22;9145;48.588;9.250;2023-03-14T09:20:11;12.20;99.90
18041;DHT22;9145;48.588;9.250;2023-03-14T09:22:39;12.20;99.90
18041;DHT22;9145;48.588;9.250;2023-03-14T09:25:07;12.20;99.90
18041;DHT22;9145;48.588;9.250;2023-03-14T09:27:34;12.20;99.90
18041;DHT22;9145;48.588;9.250;2023-03-14T09:30:01;12.10;99.90
18041;DHT22;9145;48.588;9.250;2023-03-14T09:32:28;12.10;99.90
18041;DHT22;9145;48.588;9.250;2023-03-14T09:34:56;12.10;99.90
18041;DHT22;9145;48.588;9.250;2023-03-14T09:37:23;12.00;99.90
18041;DHT22;9145;48.588;9.250;2023-03-14T09:39:49;12.00;99.90
18041;DHT22;9145;48.588;9.250;2023-03-14T09:42:19;11.90;99.90
18041;DHT22;9145;48.588;9.250;2023-03-14T09:44:53;11.80;99.90
18041;DHT22;9145;48.588;9.250;2023-03-14T09:47:21;11.50;99.90
18041;DHT22;9145;48.588;9.250;2023-03-14T09:49:49;11.40;99.90
18041;DHT22;9145;48.588;9.250;2023-03-14T09:52:21;11.20;99.90
18041;DHT22;9145;48.588;9.250;2023-03-14T09:54:51;11.00;99.90
18041;DHT22;9145;48.588;9.250;2023-03-14T09:57:21;11.00;99.90
18041;DHT22;9145;48.588;9.250;2023-03-14T09:59:51;11.00;99.90
18041;DHT22;9145;48.588;9.250;2023-03-14T10:02:20;11.00;99.90
18041;DHT22;9145;48.588;9.250;2023-03-14T10:04:49;11.00;99.90
18041;DHT22;9145;48.588;9.250;2023-03-14T10:07:19;10.90;99.90
18041;DHT22;9145;48.588;9.250;2023-03-14T10:09:49;10.90;99.90
18041;DHT22;9145;48.588;9.250;2023-03-14T10:12:17;11.10;99.90
18041;DHT22;9145;48.588;9.250;2023-03-14T10:14:49;11.10;99.90
18041;DHT22;9145;48.588;9.250;2023-03-14T10:17:17;11.20;99.90
18041;DHT22;9145;48.588;9.250;2023-03-14T10:19:52;11.20;99.90
18041;DHT22;9145;48.588;9.250;2023-03-14T10:22:21;11.20;99.90
18041;DHT22;9145;48.588;9.250;2023-03-14T10:24:52;11.30;99.90
18041;DHT22;9145;48.588;9.250;2023-03-14T10:27:22;11.40;99.90
18041;DHT22;9145;48.588;9.250;2023-03-14T10:29:54;11.60;99.90
18041;DHT22;9145;48.588;9.250;2023-03-14T10:32:27;11.70;99.90
18041;DHT22;9145;48.588;9.250;2023-03-14T10:35:20;11.70;99.90
18041;DHT22;9145;48.588;9.250;2023-03-14T10:37:57;11.80;99.90
18041;DHT22;9145;48.588;9.250;2023-03-14T10:40:28;11.80;99.90
18041;DHT22;9145;48.588;9.250;2023-03-14T10:42:58;11.80;99.90
18041;DHT22;9145;48.588;9.250;2023-03-14T10:45:31;11.90;99.90
18041;DHT22;9145;48.588;9.250;2023-03-14T10:48:05;11.90;99.90
18041;DHT22;9145;48.588;9.250;2023-03-14T10:50:33;12.00;99.90
18041;DHT22;9145;48.588;9.250;2023-03-14T10:53:03;12.00;99.90
18041;DHT22;9145;48.588;9.250;2023-03-14T10:55:40;12.00;99.90
18041;DHT22;9145;48.588;9.250;2023-03-14T10:58:24;12.10;99.90
18041;DHT22;9145;48.588;9.250;2023-03-14T11:00:57;12.10;99.90
18041;DHT22;9145;48.588;9.250;2023-03-14T11:03:27;12.10;99.90
18041;DHT22;9145;48.588;9.250;2023-03-14T11:05:59;12.10;99.90
18041;DHT22;9145;48.588;9.250;2023-03-14T11:08:36;12.00;99.90
18041;DHT22;9145;48.588;9.250;2023-03-14T11:11:12;12.00;99.90
18041;DHT22;9145;48.588;9.250;2023-03-14T11:13:51;11.90;99.90
18041;DHT22;9145;48.588;9.250;2023-03-14T11:16:24;11.90;99.90
18041;DHT22;9145;48.588;9.250;2023-03-14T11:19:29;11.90;99.90
18041;DHT22;9145;48.588;9.250;2023-03-14T11:22:01;11.70;99.90
18041;DHT22;9145;48.588;9.250;2023-03-14T11:24:53;11.50;99.90
18041;DHT22;9145;48.588;9.250;2023-03-14T11:27:24;11.40;99.90
18041;DHT22;9145;48.588;9.250;2023-03-14T11:29:55;11.30;99.90
18041;DHT22;9145;48.588;9.250;2023-03-14T11:32:35;11.30;99.90
18041;DHT22;9145;48.588;9.250;2023-03-14T11:35:08;11.30;99.90
18041;DHT22;9145;48.588;9.250;2023-03-14T11:37:43;11.30;99.90
18041;DHT22;9145;48.588;9.250;2023-03-14T11:40:18;11.30;99.90
18041;DHT22;9145;48.588;9.250;2023-03-14T11:42:47;11.20;99.90
18041;DHT22;9145;48.588;9.250;2023-03-14T11:45:20;11.10;99.90
18041;DHT22;9145;48.588;9.250;2023-03-14T11:47:52;11.00;99.90
18041;DHT22;9145;48.588;9.250;2023-03-14T11:50:23;10.90;99.90
18041;DHT22;9145;48.588;9.250;2023-03-14T11:52:54;10.80;99.90
18041;DHT22;9145;48.588;9.250;2023-03-14T11:55:27;10.80;99.90
18041;DHT22;9145;48.588;9.250;2023-03-14T11:57:58;10.80;99.90
18041;DHT22;9145;48.588;9.250;2023-03-14T12:00:26;10.80;99.90
18041;DHT22;9145;48.588;9.250;2023-03-14T12:02:58;10.80;99.90
18041;DHT22;9145;48.588;9.250;2023-03-14T12:05:34;10.90;99.90
18041;DHT22;9145;48.588;9.250;2023-03-14T12:08:30;10.90;99.90
18041;DHT22;9145;48.588;9.250;2023-03-14T12:11:04;10.90;99.90
18041;DHT22;9145;48.588;9.250;2023-03-14T12:13:33;10.90;99.90
18041;DHT22;9145;48.588;9.250;2023-03-14T12:16:05;10.90;99.90
18041;DHT22;9145;48.588;9.250;2023-03-14T12:18:35;10.80;99.90
18041;DHT22;9145;48.588;9.250;2023-03-14T12:21:05;10.80;99.90
18041;DHT22;9145;48.588;9.250;2023-03-14T12:23:37;10.60;99.90
18041;DHT22;9145;48.588;9.250;2023-03-14T12:26:14;10.60;99.90
18041;DHT22;9145;48.588;9.250;2023-03-14T12:28:43;10.40;99.90
18041;DHT22;9145;48.588;9.250;2023-03-14T12:31:41;10.40;99.90
18041;DHT22;9145;48.588;9.250;2023-03-14T12:34:30;10.30;99.90
18041;DHT22;9145;48.588;9.250;2023-03-14T12:37:04;10.30;99.90
18041;DHT22;9145;48.588;9.250;2023-03-14T12:39:39;10.40;99.90
18041;DHT22;9145;48.588;9.250;2023-03-14T12:42:13;10.40;99.90
18041;DHT22;9145;48.588;9.250;2023-03-14T12:44:45;10.50;99.90
18041;DHT22;9145;48.588;9.250;2023-03-14T12:50:15;10.60;99.90
18041;DHT22;9145;48.588;9.250;2023-03-14T12:55:36;10.60;99.90
18041;DHT22;9145;48.588;9.250;2023-03-14T12:58:12;10.60;99.90
18041;DHT22;9145;48.588;9.250;2023-03-14T13:00:42;10.60;99.90
18041;DHT22;9145;48.588;9.250;2023-03-14T13:03:18;10.80;99.90
18041;DHT22;9145;48.588;9.250;2023-03-14T13:05:55;10.60;99.90
18041;DHT22;9145;48.588;9.250;2023-03-14T13:08:35;10.40;99.90
18041;DHT22;9145;48.588;9.250;2023-03-14T13:11:04;10.40;99.90
18041;DHT22;9145;48.588;9.250;2023-03-14T13:13:35;10.50;99.90
18041;DHT22;9145;48.588;9.250;2023-03-14T13:16:02;10.80;99.90
18041;DHT22;9145;48.588;9.250;2023-03-14T13:18:34;11.10;99.90
18041;DHT22;9145;48.588;9.250;2023-03-14T13:21:06;11.20;99.90
18041;DHT22;9145;48.588;9.250;2023-03-14T13:23:36;10.70;99.90
18041;DHT22;9145;48.588;9.250;2023-03-14T13:26:09;10.30;99.90
18041;DHT22;9145;48.588;9.250;2023-03-14T13:28:38;10.20;99.90
18041;DHT22;9145;48.588;9.250;2023-03-14T13:31:05;9.90;99.90
18041;DHT22;9145;48.588;9.250;2023-03-14T13:33:33;9.90;99.90
18041;DHT22;9145;48.588;9.250;2023-03-14T13:36:02;9.90;99.90
18041;DHT22;9145;48.588;9.250;2023-03-14T13:38:31;10.00;99.90
18041;DHT22;9145;48.588;9.250;2023-03-14T13:40:59;10.00;99.90
18041;DHT22;9145;48.588;9.250;2023-03-14T13:43:29;9.90;99.90
18041;DHT22;9145;48.588;9.250;2023-03-14T13:46:03;9.90;99.90
18041;DHT22;9145;48.588;9.250;2023-03-14T13:48:32;9.90;99.90
18041;DHT22;9145;48.588;9.250;2023-03-14T13:51:02;9.90;99.90
18041;DHT22;9145;48.588;9.250;2023-03-14T13:53:30;9.80;99.90
18041;DHT22;9145;48.588;9.250;2023-03-14T13:56:01;9.60;99.90
18041;DHT22;9145;48.588;9.250;2023-03-14T13:58:30;9.30;99.90
18041;DHT22;9145;48.588;9.250;2023-03-14T14:01:02;9.20;99.90
18041;DHT22;9145;48.588;9.250;2023-03-14T14:03:32;9.20;99.90
18041;DHT22;9145;48.588;9.250;2023-03-14T14:05:59;9.10;99.90
18041;DHT22;9145;48.588;9.250;2023-03-14T14:08:26;9.10;99.90
18041;DHT22;9145;48.588;9.250;2023-03-14T14:10:57;9.10;99.90
18041;DHT22;9145;48.588;9.250;2023-03-14T14:13:27;9.10;99.90
18041;DHT22;9145;48.588;9.250;2023-03-14T14:15:55;9.20;99.90
18041;DHT22;9145;48.588;9.250;2023-03-14T14:18:26;9.20;99.90
18041;DHT22;9145;48.588;9.250;2023-03-14T14:20:54;9.20;99.90
18041;DHT22;9145;48.588;9.250;2023-03-14T14:23:24;9.10;99.90
18041;DHT22;9145;48.588;9.250;2023-03-14T14:25:54;9.00;99.90
18041;DHT22;9145;48.588;9.250;2023-03-14T14:28:25;9.10;99.90
18041;DHT22;9145;48.588;9.250;2023-03-14T14:31:01;9.10;99.90
18041;DHT22;9145;48.588;9.250;2023-03-14T14:33:38;9.20;99.90
18041;DHT22;9145;48.588;9.250;2023-03-14T14:36:11;9.30;99.90
18041;DHT22;9145;48.588;9.250;2023-03-14T14:38:40;9.30;99.90
18041;DHT22;9145;48.588;9.250;2023-03-14T14:41:11;9.20;99.90
18041;DHT22;9145;48.588;9.250;2023-03-14T14:43:39;9.20;99.90
18041;DHT22;9145;48.588;9.250;2023-03-14T14:46:08;9.30;99.90
18041;DHT22;9145;48.588;9.250;2023-03-14T14:48:38;9.30;99.90
18041;DHT22;9145;48.588;9.250;2023-03-14T14:51:06;9.20;99.90
18041;DHT22;9145;48.588;9.250;2023-03-14T14:53:37;9.10;99.90
18041;DHT22;9145;48.588;9.250;2023-03-14T14:56:06;9.10;99.90
18041;DHT22;9145;48.588;9.250;2023-03-14T14:58:35;9.20;99.90
18041;DHT22;9145;48.588;9.250;2023-03-14T15:01:07;9.30;99.90
18041;DHT22;9145;48.588;9.250;2023-03-14T15:03:38;9.30;99.90
18041;DHT22;9145;48.588;9.250;2023-03-14T15:06:05;9.30;99.90
18041;DHT22;9145;48.588;9.250;2023-03-14T15:08:32;9.30;99.90
18041;DHT22;9145;48.588;9.250;2023-03-14T15:10:58;9.40;99.90
18041;DHT22;9145;48.588;9.250;2023-03-14T15:13:25;9.60;99.90
18041;DHT22;9145;48.588;9.250;2023-03-14T15:15:52;9.60;99.90
18041;DHT22;9145;48.588;9.250;2023-03-14T15:18:22;9.50;99.90
18041;DHT22;9145;48.588;9.250;2023-03-14T15:20:51;9.40;99.90
18041;DHT22;9145;48.588;9.250;2023-03-14T15:23:19;9.30;99.90
18041;DHT22;9145;48.588;9.250;2023-03-14T15:25:47;9.40;99.90
18041;DHT22;9145;48.588;9.250;2023-03-14T15:28:17;9.50;99.90
18041;DHT22;9145;48.588;9.250;2023-03-14T15:30:45;9.60;99.90
18041;DHT22;9145;48.588;9.250;2023-03-14T15:33:12;9.70;99.90
18041;DHT22;9145;48.588;9.250;2023-03-14T15:35:39;9.60;99.90
18041;DHT22;9145;48.588;9.250;2023-03-14T15:38:10;9.40;99.90
18041;DHT22;9145;48.588;9.250;2023-03-14T15:40:38;9.30;99.90
18041;DHT22;9145;48.588;9.250;2023-03-14T15:43:05;9.30;99.90
18041;DHT22;9145;48.588;9.250;2023-03-14T15:45:32;9.30;99.90
18041;DHT22;9145;48.588;9.250;2023-03-14T15:47:59;9.40;99.90
18041;DHT22;9145;48.588;9.250;2023-03-14T15:50:26;9.30;99.90
18041;DHT22;9145;48.588;9.250;2023-03-14T15:52:53;9.30;99.90
18041;DHT22;9145;48.588;9.250;2023-03-14T15:55:22;9.10;99.90
18041;DHT22;9145;48.588;9.250;2023-03-14T15:57:49;9.10;99.90
18041;DHT22;9145;48.588;9.250;2023-03-14T16:00:18;9.10;99.90
18041;DHT22;9145;48.588;9.250;2023-03-14T16:02:47;9.10;99.90
18041;DHT22;9145;48.588;9.250;2023-03-14T16:05:14;9.00;99.90
18041;DHT22;9145;48.588;9.250;2023-03-14T16:07:41;9.00;99.90
18041;DHT22;9145;48.588;9.250;2023-03-14T16:10:10;8.90;99.90